Time;durP1;ratioP1;P1;durP2;ratioP2;P2;SDS_P1;SDS_P2;PMS_P1;PMS_P2;Temp;Humidity;BMP_temperature;BMP_pressure;BME280_temperature;BME280_humidity;BME280_pressure;Samples;Min_cycle;Max_cycle;Signal;HPM_P1;HPM_P2
2021/06/22 00:01:18;;;;;;;18.30;4.40;;;;;;;21.03;74.92;99946.13;1740180;80;20914;-81
2021/06/22 00:03:45;;;;;;;24.18;4.70;;;;;;;21.09;74.63;99949.89;1705457;82;21091;-81
2021/06/22 00:06:12;;;;;;;21.85;4.53;;;;;;;21.13;74.00;99946.63;1727009;81;20997;-81
2021/06/22 00:08:39;;;;;;;24.70;4.35;;;;;;;21.17;73.88;99941.66;1726813;81;21227;-82
2021/06/22 00:11:06;;;;;;;21.02;4.85;;;;;;;21.15;73.80;99931.13;1705044;82;21831;-82
2021/06/22 00:13:34;;;;;;;26.15;4.85;;;;;;;21.13;73.77;99931.85;1716609;82;21056;-82
2021/06/22 00:16:03;;;;;;;22.55;5.53;;;;;;;21.08;73.89;99917.36;1733007;79;21016;-82
2021/06/22 00:18:29;;;;;;;24.07;5.03;;;;;;;21.03;73.99;99919.28;1718910;80;20999;-82
2021/06/22 00:20:55;;;;;;;20.68;4.85;;;;;;;20.95;74.14;99919.48;1746405;80;21110;-81
2021/06/22 00:23:22;;;;;;;16.85;4.55;;;;;;;20.88;74.33;99913.25;1708880;82;21803;-80
2021/06/22 00:25:48;;;;;;;14.60;3.87;;;;;;;20.80;74.51;99914.23;1763002;78;21087;-81
2021/06/22 00:28:15;;;;;;;18.98;4.08;;;;;;;20.74;74.53;99900.78;1715289;80;21144;-82
2021/06/22 00:30:43;;;;;;;16.50;3.95;;;;;;;20.72;74.52;99900.16;1701023;81;21028;-81
2021/06/22 00:33:10;;;;;;;18.45;4.00;;;;;;;20.67;74.41;99887.87;1748966;80;21024;-82
2021/06/22 00:35:36;;;;;;;26.02;4.75;;;;;;;20.64;74.45;99894.44;1731424;80;21817;-83
2021/06/22 00:38:03;;;;;;;15.38;4.30;;;;;;;20.63;74.44;99891.44;1735472;80;21154;-82
2021/06/22 00:40:29;;;;;;;15.05;3.85;;;;;;;20.62;74.38;99892.98;1749682;80;21483;-81
2021/06/22 00:42:56;;;;;;;16.20;4.30;;;;;;;20.63;74.17;99895.47;1745549;80;21008;-82
2021/06/22 00:45:32;;;;;;;16.20;3.85;;;;;;;20.64;74.06;99884.22;1750508;80;21021;-83
2021/06/22 00:48:00;;;;;;;13.28;4.10;;;;;;;20.64;74.01;99876.99;1751089;79;21853;-82
2021/06/22 00:50:27;;;;;;;17.85;3.87;;;;;;;20.63;73.97;99867.80;1710610;82;20961;-82
2021/06/22 00:52:55;;;;;;;12.78;3.92;;;;;;;20.60;74.03;99866.36;1749446;80;20969;-82
2021/06/22 00:55:29;;;;;;;23.05;4.00;;;;;;;20.56;74.22;99861.08;1763793;80;21617;-82
2021/06/22 00:58:05;;;;;;;17.42;3.70;;;;;;;20.51;74.24;99853.62;1740305;79;21016;-81
2021/06/22 01:00:33;;;;;;;23.32;4.40;;;;;;;20.52;74.26;99849.91;1711700;81;22460;-81
2021/06/22 01:03:01;;;;;;;20.23;4.15;;;;;;;20.52;74.42;99853.10;1737666;80;21088;-81
2021/06/22 01:05:29;;;;;;;18.73;4.37;;;;;;;20.51;74.26;99858.98;1717517;80;20976;-83
2021/06/22 01:07:58;;;;;;;17.00;3.85;;;;;;;20.52;74.29;99859.30;1749522;80;21111;-81
2021/06/22 01:10:25;;;;;;;13.85;3.85;;;;;;;20.51;74.27;99857.64;1717247;82;21178;-82
2021/06/22 01:12:53;;;;;;;11.88;4.17;;;;;;;20.51;74.25;99860.32;1748200;79;21796;-82
2021/06/22 01:15:25;;;;;;;14.98;4.03;;;;;;;20.52;74.27;99863.31;1752995;79;21080;-82
2021/06/22 01:17:54;;;;;;;22.27;4.45;;;;;;;20.50;74.20;99857.33;1747203;80;21008;-82
2021/06/22 01:20:24;;;;;;;17.35;4.20;;;;;;;20.51;74.05;99858.98;1717020;81;21021;-82
2021/06/22 01:22:52;;;;;;;21.40;4.47;;;;;;;20.52;73.78;99849.08;1675973;83;21507;-81
2021/06/22 01:25:18;;;;;;;17.87;4.22;;;;;;;20.54;73.66;99841.14;1636236;83;21799;-82
2021/06/22 01:27:45;;;;;;;20.55;4.90;;;;;;;20.53;73.51;99838.66;1744832;80;21392;-81
2021/06/22 01:30:12;;;;;;;22.22;5.30;;;;;;;20.49;73.49;99838.23;1721358;80;21020;-82
2021/06/22 01:32:46;;;;;;;24.40;6.58;;;;;;;20.48;73.41;99847.83;1743190;80;21099;-82
2021/06/22 01:35:13;;;;;;;21.05;7.15;;;;;;;20.45;73.45;99851.72;1743851;80;21245;-82
2021/06/22 01:37:53;;;;;;;18.40;7.53;;;;;;;20.43;73.49;99855.12;1754221;80;21845;-82
2021/06/22 01:40:20;;;;;;;24.10;5.33;;;;;;;20.41;73.61;99857.66;1729526;79;21091;-82
2021/06/22 01:42:47;;;;;;;20.40;4.80;;;;;;;20.36;73.66;99858.23;1708886;82;21129;-82
2021/06/22 01:45:14;;;;;;;19.25;4.00;;;;;;;20.36;73.57;99861.43;1672376;84;21191;-82
2021/06/22 01:47:42;;;;;;;13.13;3.58;;;;;;;20.40;73.26;99872.10;1738687;80;21546;-83
2021/06/22 01:50:11;;;;;;;20.37;3.67;;;;;;;20.42;72.88;99882.94;1695348;82;21824;-82
2021/06/22 01:52:38;;;;;;;20.40;3.80;;;;;;;20.45;72.07;99887.11;1696397;82;20964;-82
2021/06/22 01:57:51;;;;;;;16.30;3.27;;;;;;;20.57;71.14;99891.73;1708395;82;21013;-78
2021/06/22 02:00:25;;;;;;;14.75;3.52;;;;;;;20.64;70.57;99897.63;1709217;82;21403;-81
2021/06/22 02:03:05;;;;;;;11.33;2.87;;;;;;;20.68;70.02;99898.91;1737228;80;21806;-79
2021/06/22 02:05:45;;;;;;;13.68;2.80;;;;;;;20.74;69.32;99900.78;1724724;80;20955;-81
2021/06/22 02:08:14;;;;;;;17.32;3.02;;;;;;;20.80;69.09;99915.58;1712082;82;21060;-81
2021/06/22 02:10:42;;;;;;;15.38;3.45;;;;;;;20.82;68.77;99907.33;1714975;82;21024;-82
2021/06/22 02:13:09;;;;;;;13.18;3.40;;;;;;;20.83;68.77;99896.38;1704839;82;21069;-81
2021/06/22 02:15:40;;;;;;;14.25;3.20;;;;;;;20.82;68.89;99897.93;1745974;80;21543;-81
2021/06/22 02:18:07;;;;;;;11.88;3.08;;;;;;;20.83;68.83;99892.36;1711623;81;21429;-81
2021/06/22 02:20:36;;;;;;;14.50;2.98;;;;;;;20.83;68.95;99884.82;1736237;80;21469;-81
2021/06/22 02:23:03;;;;;;;18.70;3.50;;;;;;;20.81;69.03;99871.61;1743995;80;21166;-81
2021/06/22 02:25:33;;;;;;;12.73;2.90;;;;;;;20.78;68.58;99884.09;1734857;80;21087;-81
2021/06/22 02:28:10;;;;;;;13.03;3.02;;;;;;;20.81;68.65;99872.12;1749692;80;21865;-80
2021/06/22 02:30:38;;;;;;;11.85;3.17;;;;;;;20.80;68.71;99867.78;1711283;82;22376;-81
2021/06/22 02:33:04;;;;;;;14.47;3.35;;;;;;;20.78;68.78;99857.77;1638776;85;21381;-81
2021/06/22 02:35:33;;;;;;;13.40;2.98;;;;;;;20.78;68.78;99859.11;1731408;80;21005;-82
2021/06/22 02:38:02;;;;;;;13.93;3.35;;;;;;;20.80;68.38;99865.09;1731839;82;21056;-82
2021/06/22 02:40:28;;;;;;;16.62;3.42;;;;;;;20.84;67.94;99867.20;1714818;82;21850;-81
2021/06/22 02:42:57;;;;;;;13.50;3.05;;;;;;;20.91;67.40;99853.78;1717518;81;20952;-82
2021/06/22 02:45:25;;;;;;;11.65;2.98;;;;;;;20.97;67.02;99844.10;1725032;80;21104;-82
2021/06/22 02:47:53;;;;;;;14.20;3.00;;;;;;;20.99;66.63;99860.31;1746691;80;21044;-82
2021/06/22 02:50:21;;;;;;;11.40;2.60;;;;;;;21.02;66.25;99858.56;1750094;80;21122;-81
2021/06/22 02:52:49;;;;;;;9.35;2.72;;;;;;;21.08;65.70;99855.59;1746282;80;22659;-82
2021/06/22 02:55:18;;;;;;;10.28;2.35;;;;;;;21.12;65.62;99859.00;1722806;80;21019;-82
2021/06/22 02:57:49;;;;;;;10.48;2.83;;;;;;;21.16;65.19;99852.73;1749685;80;21023;-81
2021/06/22 03:00:20;;;;;;;15.85;2.90;;;;;;;21.19;64.74;99853.66;1694957;80;21494;-82
2021/06/22 03:02:46;;;;;;;17.98;2.87;;;;;;;21.22;64.44;99863.98;1730854;80;20992;-81
2021/06/22 03:05:14;;;;;;;15.30;2.40;;;;;;;21.26;64.33;99873.83;1711209;82;21800;-81
2021/06/22 03:07:43;;;;;;;12.65;2.70;;;;;;;21.30;64.26;99868.38;1719718;81;21219;-81
2021/06/22 03:10:12;;;;;;;11.75;2.67;;;;;;;21.33;63.97;99874.70;1681126;82;21086;-81
2021/06/22 03:12:39;;;;;;;12.13;2.65;;;;;;;21.36;63.45;99872.95;1715407;81;21020;-82
2021/06/22 03:15:10;;;;;;;19.20;2.75;;;;;;;21.38;63.19;99870.87;1677961;83;21099;-81
2021/06/22 03:17:39;;;;;;;13.05;2.27;;;;;;;21.41;63.43;99879.34;1761810;79;21206;-81
2021/06/22 03:20:08;;;;;;;9.70;2.80;;;;;;;21.41;63.68;99878.52;1749519;80;21401;-81
2021/06/22 03:22:35;;;;;;;8.28;2.50;;;;;;;21.41;63.50;99888.75;1747072;80;21363;-81
2021/06/22 03:25:06;;;;;;;10.70;2.42;;;;;;;21.42;63.23;99881.02;1728541;81;21067;-80
2021/06/22 03:27:32;;;;;;;16.87;2.85;;;;;;;21.45;63.31;99875.75;1724156;80;21654;-81
2021/06/22 03:30:05;;;;;;;10.78;2.65;;;;;;;21.48;63.58;99878.02;1741572;79;21832;-80
2021/06/22 03:32:32;;;;;;;14.63;3.10;;;;;;;21.48;63.67;99869.95;1748911;80;20972;-80
2021/06/22 03:34:59;;;;;;;17.57;2.90;;;;;;;21.51;63.81;99870.05;1739754;80;21424;-80
2021/06/22 03:37:25;;;;;;;14.20;2.92;;;;;;;21.53;63.75;99869.36;1735450;80;21447;-80
2021/06/22 03:39:52;;;;;;;13.80;2.87;;;;;;;21.55;63.66;99873.48;1747076;80;21008;-81
2021/06/22 03:42:19;;;;;;;10.72;2.40;;;;;;;21.58;63.72;99874.93;1709548;81;22454;-81
2021/06/22 03:44:46;;;;;;;13.88;2.62;;;;;;;21.60;64.02;99866.14;1744655;80;20992;-81
2021/06/22 03:47:15;;;;;;;13.90;2.58;;;;;;;21.62;64.45;99868.95;1756690;79;20964;-81
2021/06/22 03:49:44;;;;;;;14.45;2.62;;;;;;;21.61;64.55;99865.93;1716758;82;21326;-81
2021/06/22 03:52:10;;;;;;;13.78;2.90;;;;;;;21.60;64.79;99868.83;1741493;80;21059;-81
2021/06/22 03:54:37;;;;;;;10.80;2.90;;;;;;;21.58;64.72;99870.38;1739329;80;22617;-81
2021/06/22 03:57:05;;;;;;;17.60;2.90;;;;;;;21.60;64.80;99867.48;1752056;80;21562;-81
2021/06/22 03:59:34;;;;;;;13.32;2.77;;;;;;;21.58;64.70;99859.63;1748723;79;21007;-80
2021/06/22 04:02:00;;;;;;;10.95;3.00;;;;;;;21.59;65.07;99870.69;1714982;80;21193;-80
2021/06/22 04:04:28;;;;;;;11.45;2.65;;;;;;;21.63;64.98;99902.86;1721047;82;21058;-80
2021/06/22 04:07:12;;;;;;;15.10;3.30;;;;;;;21.69;64.45;99899.33;1748919;80;21499;-79
2021/06/22 04:09:39;;;;;;;17.60;2.70;;;;;;;21.74;63.94;99892.53;1728065;80;21612;-78
2021/06/22 04:12:08;;;;;;;15.28;3.05;;;;;;;21.79;63.58;99902.13;1688165;83;21527;-78
2021/06/22 04:14:35;;;;;;;14.43;2.67;;;;;;;21.82;62.93;99895.02;1723313;81;21086;-79
2021/06/22 04:17:03;;;;;;;15.93;2.95;;;;;;;21.88;63.19;99884.24;1707479;81;21064;-78
2021/06/22 04:19:30;;;;;;;13.40;2.62;;;;;;;21.94;62.85;99889.32;1744915;80;21788;-78
2021/06/22 04:21:59;;;;;;;11.65;2.80;;;;;;;21.99;62.06;99871.51;1747919;80;21055;-75
2021/06/22 04:24:28;;;;;;;15.58;3.10;;;;;;;22.05;61.76;99861.80;1702479;82;21029;-76
2021/06/22 04:26:55;;;;;;;14.07;3.20;;;;;;;22.12;61.75;99868.03;1721349;81;20953;-74
2021/06/22 04:29:22;;;;;;;18.73;3.70;;;;;;;22.16;61.31;99843.70;1693773;82;21036;-76
2021/06/22 04:31:49;;;;;;;14.80;2.90;;;;;;;22.17;61.13;99847.22;1691443;83;22770;-79
2021/06/22 04:34:16;;;;;;;19.92;3.35;;;;;;;22.18;61.08;99840.28;1721879;82;21004;-76
2021/06/22 04:36:42;;;;;;;13.95;3.20;;;;;;;22.23;61.14;99845.05;1719279;82;21012;-78
2021/06/22 04:39:09;;;;;;;20.68;2.95;;;;;;;22.28;61.09;99862.19;1749511;80;20960;-79
2021/06/22 04:41:35;;;;;;;19.10;2.77;;;;;;;22.31;60.96;99873.08;1717381;82;21170;-78
2021/06/22 04:44:01;;;;;;;12.25;2.92;;;;;;;22.30;60.83;99890.26;1700365;82;21768;-81
2021/06/22 04:46:28;;;;;;;15.95;2.80;;;;;;;22.31;60.63;99896.46;1716434;82;21122;-83
2021/06/22 04:48:54;;;;;;;13.48;2.67;;;;;;;22.31;60.49;99901.33;1693262;82;21029;-80
2021/06/22 04:51:20;;;;;;;14.03;2.58;;;;;;;22.32;60.20;99908.36;1745838;80;21090;-79
2021/06/22 04:53:48;;;;;;;12.78;3.05;;;;;;;22.32;60.11;99913.73;1721871;80;21484;-81
2021/06/22 04:56:15;;;;;;;13.32;2.95;;;;;;;22.32;60.25;99902.15;1750690;80;21822;-81
2021/06/22 04:58:42;;;;;;;13.72;3.00;;;;;;;22.30;60.51;99918.50;1715799;82;21017;-80
2021/06/22 05:01:08;;;;;;;13.53;2.80;;;;;;;22.30;60.75;99913.12;1715273;82;21364;-81
2021/06/22 05:03:35;;;;;;;16.27;3.10;;;;;;;22.32;61.07;99909.70;1676024;83;21292;-81
2021/06/22 05:06:02;;;;;;;17.30;3.10;;;;;;;22.35;61.42;99926.77;1733393;81;21055;-81
2021/06/22 05:08:28;;;;;;;17.30;2.85;;;;;;;22.38;61.24;99926.33;1749822;80;21750;-81
2021/06/22 05:10:54;;;;;;;16.35;3.15;;;;;;;22.42;61.21;99917.34;1749901;80;21008;-76
2021/06/22 05:13:22;;;;;;;14.30;2.92;;;;;;;22.48;61.33;99909.75;1725073;81;21044;-77
2021/06/22 05:15:49;;;;;;;15.32;2.90;;;;;;;22.51;61.20;99908.01;1750759;80;21300;-76
2021/06/22 05:18:15;;;;;;;16.37;2.98;;;;;;;22.51;60.76;99899.41;1716331;82;20961;-77
2021/06/22 05:20:42;;;;;;;25.62;3.50;;;;;;;22.55;60.12;99913.27;1717100;82;21765;-77
2021/06/22 05:23:08;;;;;;;25.57;3.62;;;;;;;22.63;59.77;99906.31;1750724;80;20940;-77
2021/06/22 05:25:34;;;;;;;16.52;3.55;;;;;;;22.73;59.70;99920.16;1740426;80;21060;-77
2021/06/22 05:28:01;;;;;;;20.68;3.95;;;;;;;22.88;59.05;99896.23;1737997;81;21077;-77
2021/06/22 05:30:27;;;;;;;25.10;3.25;;;;;;;23.01;58.77;99886.21;1719977;82;21237;-78
2021/06/22 05:32:54;;;;;;;23.12;3.60;;;;;;;23.15;58.56;99884.27;1724010;81;21861;-77
2021/06/22 05:35:21;;;;;;;15.55;3.10;;;;;;;23.31;58.17;99881.59;1751516;80;21000;-77
2021/06/22 05:37:47;;;;;;;21.30;3.50;;;;;;;23.50;58.09;99882.52;1750473;80;21024;-77
2021/06/22 05:40:14;;;;;;;32.28;3.95;;;;;;;23.66;57.49;99880.67;1684340;84;21040;-77
2021/06/22 05:42:41;;;;;;;17.75;3.42;;;;;;;23.79;57.31;99873.81;1725405;82;21009;-77
2021/06/22 05:45:08;;;;;;;19.77;3.58;;;;;;;23.94;57.64;99886.46;1726446;82;21820;-78
2021/06/22 05:47:35;;;;;;;22.42;4.00;;;;;;;24.05;56.77;99890.83;1742400;80;21044;-83
2021/06/22 05:50:01;;;;;;;22.85;4.17;;;;;;;24.14;56.03;99889.50;1730569;80;21013;-81
2021/06/22 05:52:27;;;;;;;30.27;4.50;;;;;;;24.20;55.72;99895.34;1748094;80;21032;-79
2021/06/22 05:54:54;;;;;;;27.27;4.25;;;;;;;24.27;55.63;99905.03;1740678;80;21051;-79
2021/06/22 05:57:20;;;;;;;29.37;4.25;;;;;;;24.30;54.98;99896.19;1713470;82;21873;-80
2021/06/22 05:59:47;;;;;;;23.15;4.17;;;;;;;24.24;53.93;99881.73;1705767;82;21044;-81
2021/06/22 06:02:13;;;;;;;24.25;4.17;;;;;;;24.20;54.21;99889.95;1712524;81;21085;-82
2021/06/22 06:04:39;;;;;;;31.27;4.67;;;;;;;24.20;54.31;99896.17;1719844;82;21045;-80
2021/06/22 06:07:06;;;;;;;38.75;5.00;;;;;;;24.26;54.64;99899.86;1716300;82;21040;-81
2021/06/22 06:09:35;;;;;;;25.80;4.45;;;;;;;24.30;54.60;99893.48;1721712;81;21482;-79
2021/06/22 06:12:03;;;;;;;21.82;4.40;;;;;;;24.36;54.76;99890.77;1750884;80;21166;-79
2021/06/22 06:14:30;;;;;;;35.35;4.62;;;;;;;24.42;54.90;99895.28;1725900;82;21088;-81
2021/06/22 06:16:57;;;;;;;31.93;4.62;;;;;;;24.49;54.24;99888.44;1711566;83;21084;-79
2021/06/22 06:19:23;;;;;;;30.25;4.80;;;;;;;24.55;54.37;99886.20;1738874;80;21048;-81
2021/06/22 06:21:49;;;;;;;36.35;4.85;;;;;;;24.59;54.06;99889.27;1711139;82;21558;-80
2021/06/22 06:24:16;;;;;;;39.40;5.10;;;;;;;24.63;54.11;99887.78;1750173;80;21339;-82
2021/06/22 06:29:32;;;;;;;29.77;4.45;;;;;;;24.69;53.78;99890.38;1717846;81;21071;-76
2021/06/22 06:31:52;;;;;;;29.40;4.70;;;;;;;24.74;53.74;99897.30;1713485;82;21092;-76
2021/06/22 06:34:18;;;;;;;40.20;5.30;;;;;;;24.76;53.75;99900.59;1704396;82;21821;-76
2021/06/22 06:36:45;;;;;;;34.83;4.30;;;;;;;24.78;53.93;99902.53;1743133;80;21436;-76
2021/06/22 06:39:12;;;;;;;33.58;4.58;;;;;;;24.84;54.16;99895.42;1751617;80;21716;-77
2021/06/22 06:41:38;;;;;;;38.02;5.00;;;;;;;24.94;54.58;99908.39;1740750;80;21095;-77
2021/06/22 06:44:05;;;;;;;35.78;5.00;;;;;;;24.96;53.55;99915.20;1730983;82;21017;-78
2021/06/22 06:46:31;;;;;;;46.33;5.20;;;;;;;24.99;53.89;99909.34;1717232;82;21820;-75
2021/06/22 06:48:58;;;;;;;32.08;5.37;;;;;;;25.08;53.69;99916.11;1730614;81;21099;-76
2021/06/22 06:51:24;;;;;;;32.50;4.78;;;;;;;25.14;53.68;99902.77;1707615;82;21079;-77
2021/06/22 06:53:51;;;;;;;36.45;5.90;;;;;;;25.19;53.13;99901.53;1750674;80;21071;-79
2021/06/22 06:56:17;;;;;;;31.62;5.15;;;;;;;25.22;53.41;99907.33;1749975;80;21415;-76
2021/06/22 06:58:44;;;;;;;37.55;5.42;;;;;;;25.26;53.76;99903.09;1714847;81;21844;-76
2021/06/22 07:01:13;;;;;;;44.33;6.30;;;;;;;25.33;53.80;99899.78;1716260;82;21003;-77
2021/06/22 07:03:43;;;;;;;46.58;5.78;;;;;;;25.45;53.16;99903.88;1703399;82;20973;-78
2021/06/22 07:06:08;;;;;;;50.65;6.15;;;;;;;25.54;53.44;99913.84;1745803;80;20949;-77
2021/06/22 07:08:36;;;;;;;64.07;7.40;;;;;;;25.62;52.10;99908.92;1717426;82;20956;-78
2021/06/22 07:11:02;;;;;;;43.05;5.95;;;;;;;25.57;50.20;99906.61;1716391;81;21826;-78
2021/06/22 07:13:29;;;;;;;51.23;7.30;;;;;;;25.49;50.43;99910.48;1710219;82;20964;-76
2021/06/22 07:15:57;;;;;;;50.67;6.20;;;;;;;25.46;50.78;99918.22;1715489;82;21506;-77
2021/06/22 07:18:24;;;;;;;56.90;7.10;;;;;;;25.47;50.05;99914.45;1675124;82;21142;-77
2021/06/22 07:20:50;;;;;;;47.10;6.47;;;;;;;25.50;50.49;99916.19;1729278;82;21075;-83
2021/06/22 07:23:16;;;;;;;48.15;7.17;;;;;;;25.56;50.18;99922.01;1749639;79;21802;-80
2021/06/22 07:25:43;;;;;;;50.43;7.25;;;;;;;25.59;50.10;99932.91;1716500;82;21052;-78
2021/06/22 07:28:09;;;;;;;63.50;7.50;;;;;;;25.57;48.83;99925.00;1732231;82;21053;-83
2021/06/22 07:30:35;;;;;;;58.68;7.75;;;;;;;25.54;48.96;99939.53;1720445;82;21128;-77
2021/06/22 07:33:02;;;;;;;55.78;7.30;;;;;;;25.52;48.85;99928.12;1741329;80;21083;-78
2021/06/22 07:35:32;;;;;;;48.05;6.58;;;;;;;25.53;49.24;99937.35;1745335;80;22703;-80
2021/06/22 07:37:58;;;;;;;67.70;8.40;;;;;;;25.57;49.52;99939.05;1753959;80;21464;-76
2021/06/22 07:40:24;;;;;;;65.03;7.72;;;;;;;25.59;49.56;99947.79;1712010;80;21622;-77
2021/06/22 07:42:51;;;;;;;50.85;7.47;;;;;;;25.66;50.00;99944.44;1713659;81;21562;-76
2021/06/22 07:45:18;;;;;;;55.85;7.37;;;;;;;25.73;49.11;99953.31;1732257;81;21432;-76
2021/06/22 07:47:44;;;;;;;59.08;8.18;;;;;;;25.71;49.17;99948.67;1751962;80;21752;-79
2021/06/22 07:50:11;;;;;;;71.45;7.65;;;;;;;25.67;48.80;99954.20;1726378;80;21479;-77
2021/06/22 07:52:38;;;;;;;63.10;9.13;;;;;;;25.61;49.62;99945.14;1709491;82;20977;-78
2021/06/22 07:55:06;;;;;;;46.42;7.65;;;;;;;25.66;49.65;99948.49;1732574;82;21434;-77
2021/06/22 07:57:32;;;;;;;55.28;7.42;;;;;;;25.75;50.37;99954.44;1718671;82;20956;-75
2021/06/22 08:00:05;;;;;;;53.17;7.80;;;;;;;25.86;50.47;99956.34;1749713;80;21745;-76
2021/06/22 08:02:33;;;;;;;59.05;7.97;;;;;;;25.93;49.10;99946.25;1730249;81;21710;-77
2021/06/22 08:04:59;;;;;;;75.80;8.78;;;;;;;25.94;50.16;99953.30;1717430;82;21505;-76
2021/06/22 08:07:26;;;;;;;44.53;8.00;;;;;;;26.06;49.98;99957.41;1750237;80;21094;-75
2021/06/22 08:09:53;;;;;;;71.72;8.90;;;;;;;26.16;50.12;99947.65;1725032;82;21084;-79
2021/06/22 08:12:19;;;;;;;64.70;8.90;;;;;;;26.20;48.83;99947.47;1719146;82;21786;-73
2021/06/22 08:14:47;;;;;;;58.23;8.05;;;;;;;26.21;48.97;99944.23;1748069;80;20996;-81
2021/06/22 08:17:14;;;;;;;44.83;7.00;;;;;;;26.20;49.13;99946.11;1718226;82;21083;-79
2021/06/22 08:19:40;;;;;;;60.85;8.25;;;;;;;26.21;48.76;99950.99;1727742;80;21070;-77
2021/06/22 08:22:07;;;;;;;63.58;7.80;;;;;;;26.16;49.82;99958.48;1730962;81;20970;-76
2021/06/22 08:24:33;;;;;;;61.58;8.48;;;;;;;26.21;50.23;99951.81;1748375;80;22219;-78
2021/06/22 08:27:00;;;;;;;53.48;8.13;;;;;;;26.36;50.18;99951.37;1736739;81;20953;-78
2021/06/22 08:29:26;;;;;;;56.37;7.83;;;;;;;26.48;50.14;99950.86;1731912;80;20868;-79
2021/06/22 08:31:54;;;;;;;62.23;7.90;;;;;;;26.63;50.06;99952.25;1715820;82;21542;-76
2021/06/22 08:34:20;;;;;;;57.25;9.25;;;;;;;26.77;50.46;99951.77;1750146;80;20968;-75
2021/06/22 08:36:49;;;;;;;61.42;9.05;;;;;;;26.89;49.92;99940.91;1717389;82;21095;-74
2021/06/22 08:39:17;;;;;;;78.95;8.75;;;;;;;26.97;48.24;99939.72;1715827;82;21043;-79
2021/06/22 08:41:43;;;;;;;54.90;8.53;;;;;;;27.01;48.51;99945.76;1714436;82;21407;-78
2021/06/22 08:44:17;;;;;;;76.57;9.15;;;;;;;27.11;48.85;99956.02;1707072;82;21516;-79
2021/06/22 08:46:46;;;;;;;57.73;9.35;;;;;;;27.20;48.83;99949.69;1726419;81;21119;-80
2021/06/22 08:49:13;;;;;;;64.92;9.15;;;;;;;27.26;48.72;99954.98;1688094;83;22669;-78
2021/06/22 08:51:42;;;;;;;72.87;9.35;;;;;;;27.30;49.11;99956.13;1712858;82;21120;-79
2021/06/22 08:54:09;;;;;;;59.25;8.63;;;;;;;27.35;49.44;99953.53;1747139;80;21016;-79
2021/06/22 08:56:36;;;;;;;45.95;8.63;;;;;;;27.37;49.40;99951.92;1716535;82;21543;-79
2021/06/22 08:59:03;;;;;;;72.17;9.90;;;;;;;27.46;49.03;99952.37;1682211;84;21604;-77
2021/06/22 09:01:29;;;;;;;51.53;8.60;;;;;;;27.52;48.86;99954.94;1750588;80;22334;-78
2021/06/22 09:03:56;;;;;;;69.58;10.58;;;;;;;27.52;48.30;99947.34;1725627;82;21018;-76
2021/06/22 09:06:26;;;;;;;46.88;8.73;;;;;;;27.53;49.01;99960.66;1711586;81;21155;-75
2021/06/22 09:08:54;;;;;;;93.70;10.13;;;;;;;27.52;48.70;99963.08;1748992;80;21095;-75
2021/06/22 09:11:21;;;;;;;64.35;8.95;;;;;;;27.47;48.57;99968.93;1746782;80;21063;-75
2021/06/22 09:13:59;;;;;;;75.25;10.15;;;;;;;27.41;48.84;99969.88;1746883;80;21871;-78
2021/06/22 09:16:26;;;;;;;68.22;10.15;;;;;;;27.39;49.21;99964.70;1734790;80;20993;-85
2021/06/22 09:18:56;;;;;;;75.62;9.75;;;;;;;27.48;49.02;99967.33;1740553;80;21076;-80
2021/06/22 09:21:26;;;;;;;57.90;8.73;;;;;;;27.61;48.45;99974.37;1729775;80;21651;-78
2021/06/22 09:23:54;;;;;;;72.35;9.88;;;;;;;27.68;47.59;99968.27;1712451;80;21048;-79
2021/06/22 09:26:23;;;;;;;71.40;10.43;;;;;;;27.72;48.34;99978.13;1749413;80;22827;-78
2021/06/22 09:28:51;;;;;;;73.85;10.98;;;;;;;27.79;48.92;99977.41;1748692;80;21600;-79
2021/06/22 09:31:20;;;;;;;72.37;10.80;;;;;;;27.89;48.73;99973.52;1715199;82;21528;-79
2021/06/22 09:33:51;;;;;;;87.95;11.35;;;;;;;28.05;48.28;99976.79;1711662;82;21048;-80
2021/06/22 09:36:28;;;;;;;73.35;10.75;;;;;;;28.22;48.30;99979.52;1747602;80;21032;-79
2021/06/22 09:39:05;;;;;;;83.72;10.93;;;;;;;28.34;46.64;99976.20;1724943;80;21825;-80
2021/06/22 09:41:36;;;;;;;51.53;8.53;;;;;;;28.36;46.65;99981.38;1721443;81;21039;-77
2021/06/22 09:44:11;;;;;;;56.73;9.85;;;;;;;28.44;46.22;99972.28;1721795;82;21087;-79
2021/06/22 09:46:54;;;;;;;84.40;11.15;;;;;;;28.51;45.18;99977.55;1740917;80;21013;-78
2021/06/22 09:49:24;;;;;;;66.67;9.63;;;;;;;28.45;44.94;99972.56;1751402;80;21071;-78
2021/06/22 09:54:33;;;;;;;75.12;10.70;;;;;;;28.46;46.00;99974.74;1735092;80;20921;-76
2021/06/22 09:57:16;;;;;;;80.28;11.68;;;;;;;28.59;46.47;99970.87;1746399;80;21066;-77
2021/06/22 10:00:05;;;;;;;78.10;11.78;;;;;;;28.76;45.29;99979.83;1749467;80;21049;-77
2021/06/22 10:02:54;;;;;;;92.10;12.10;;;;;;;28.91;46.15;99975.97;1755207;80;20996;-77
2021/06/22 10:05:20;;;;;;;84.47;11.50;;;;;;;29.15;46.36;99978.45;1750658;80;21880;-78
2021/06/22 10:07:57;;;;;;;84.22;13.18;;;;;;;29.54;44.44;99970.50;1745156;80;21056;-78
2021/06/22 10:10:38;;;;;;;87.80;11.68;;;;;;;29.54;44.44;99970.50;1688266;82;21039;-77
2021/06/22 10:13:06;;;;;;;86.95;12.80;;;;;;;29.54;43.99;99980.03;1730273;80;20965;-77
2021/06/22 10:15:32;;;;;;;66.47;10.10;;;;;;;29.56;44.91;99975.14;1726051;81;21015;-78
2021/06/22 10:17:59;;;;;;;96.32;12.65;;;;;;;29.78;43.05;99987.88;1743080;80;21798;-77
2021/06/22 10:20:25;;;;;;;91.50;12.25;;;;;;;29.78;43.05;99987.88;1747579;81;21008;-76
2021/06/22 10:22:52;;;;;;;94.40;12.58;;;;;;;29.74;43.79;99977.23;1720255;81;21103;-79
2021/06/22 10:25:19;;;;;;;109.60;13.68;;;;;;;29.78;43.92;99983.79;1718892;81;21068;-77
2021/06/22 10:27:50;;;;;;;107.17;12.60;;;;;;;29.76;42.72;100003.65;1751570;80;21076;-80
2021/06/22 10:30:20;;;;;;;117.35;14.33;;;;;;;29.61;43.14;99979.80;1717116;82;22476;-82
2021/06/22 10:32:46;;;;;;;78.70;13.38;;;;;;;29.59;42.78;99994.21;1683827;83;21017;-78
2021/06/22 10:35:16;;;;;;;99.03;12.53;;;;;;;29.49;42.66;99978.59;1716445;82;21016;-77
2021/06/22 10:37:49;;;;;;;92.70;12.88;;;;;;;29.44;43.39;99974.98;1718354;80;20996;-76
2021/06/22 10:40:24;;;;;;;90.03;13.53;;;;;;;29.42;43.36;99975.22;1746695;80;21016;-76
2021/06/22 10:42:55;;;;;;;77.87;11.35;;;;;;;29.82;43.26;99963.97;1745619;80;22483;-78
2021/06/22 10:45:21;;;;;;;97.70;13.75;;;;;;;29.82;43.26;99963.97;1739964;80;21048;-77
2021/06/22 10:47:48;;;;;;;84.03;12.47;;;;;;;30.08;42.97;99969.11;1750467;80;21005;-76
2021/06/22 10:50:27;;;;;;;99.58;12.73;;;;;;;30.31;43.01;99983.47;1748390;80;21025;-76
2021/06/22 10:53:06;;;;;;;114.42;14.73;;;;;;;30.58;43.43;99976.55;1746600;79;21115;-78
2021/06/22 10:55:43;;;;;;;95.72;13.95;;;;;;;30.87;42.08;99978.37;1743212;80;21809;-79
2021/06/22 10:58:14;;;;;;;91.55;14.53;;;;;;;31.04;41.77;99984.47;1748685;81;20945;-78
2021/06/22 11:00:50;;;;;;;105.58;14.85;;;;;;;31.19;41.64;99985.91;1742470;80;21146;-76
2021/06/22 11:03:33;;;;;;;87.33;12.82;;;;;;;31.27;40.14;99992.80;1738804;80;21563;-77
2021/06/22 11:06:16;;;;;;;106.80;15.10;;;;;;;31.16;39.44;99994.61;1707609;82;21045;-77
2021/06/22 11:08:45;;;;;;;103.17;14.38;;;;;;;31.01;41.34;99991.28;1730902;80;20989;-77
2021/06/22 11:11:17;;;;;;;100.47;14.15;;;;;;;31.16;41.66;99993.24;1712230;82;21477;-77
2021/06/22 11:13:57;;;;;;;112.77;14.85;;;;;;;31.36;41.79;99992.52;1735640;81;21064;-77
2021/06/22 11:16:31;;;;;;;106.55;15.13;;;;;;;31.57;41.00;99995.61;1737675;80;21064;-77
2021/06/22 11:19:03;;;;;;;136.12;16.27;;;;;;;31.65;40.27;99994.78;1750874;80;21684;-77
2021/06/22 11:21:37;;;;;;;118.77;15.38;;;;;;;31.68;39.84;99988.81;1749624;80;21773;-78
2021/06/22 11:24:15;;;;;;;103.12;15.58;;;;;;;31.78;40.32;99991.03;1684468;83;21105;-77
2021/06/22 11:26:48;;;;;;;96.72;15.03;;;;;;;31.96;39.68;99991.61;1706258;81;21052;-77
2021/06/22 11:29:25;;;;;;;113.60;16.27;;;;;;;32.03;38.15;99987.48;1661737;83;21093;-77
2021/06/22 11:31:59;;;;;;;115.95;15.20;;;;;;;31.81;37.66;99990.48;1709390;83;21088;-78
2021/06/22 11:34:34;;;;;;;131.37;15.98;;;;;;;31.54;38.91;99992.58;1721221;82;22637;-77
2021/06/22 11:37:18;;;;;;;108.20;14.70;;;;;;;31.38;38.78;99979.45;1710141;82;21598;-77
2021/06/22 11:40:08;;;;;;;91.57;13.68;;;;;;;31.39;39.54;99990.64;1731647;82;21307;-76